sensor_id;sensor_type;location;lat;lon;timestamp;temperature;humidity
29849;DHT22;16728;50.832;5.590;2022-09-09T00:02:19;17.80;99.90
29849;DHT22;16728;50.832;5.590;2022-09-09T00:15:49;17.70;99.90
29849;DHT22;16728;50.832;5.590;2022-09-09T00:22:22;17.70;99.90
29849;DHT22;16728;50.832;5.590;2022-09-09T00:32:16;17.60;99.90
29849;DHT22;16728;50.832;5.590;2022-09-09T00:38:43;17.60;99.90
29849;DHT22;16728;50.832;5.590;2022-09-09T00:42:16;17.60;99.90
29849;DHT22;16728;50.832;5.590;2022-09-09T00:52:31;17.60;99.90
29849;DHT22;16728;50.832;5.590;2022-09-09T00:55:49;17.60;99.90
29849;DHT22;16728;50.832;5.590;2022-09-09T01:02:43;17.50;99.90
29849;DHT22;16728;50.832;5.590;2022-09-09T01:09:42;17.50;99.90
29849;DHT22;16728;50.832;5.590;2022-09-09T01:12:47;17.40;99.90
29849;DHT22;16728;50.832;5.590;2022-09-09T01:15:50;17.40;99.90
29849;DHT22;16728;50.832;5.590;2022-09-09T01:19:10;17.40;99.90
29849;DHT22;16728;50.832;5.590;2022-09-09T01:26:08;17.50;99.90
29849;DHT22;16728;50.832;5.590;2022-09-09T01:29:16;17.40;99.90
29849;DHT22;16728;50.832;5.590;2022-09-09T01:38:43;17.30;99.90
29849;DHT22;16728;50.832;5.590;2022-09-09T01:41:45;17.40;99.90
29849;DHT22;16728;50.832;5.590;2022-09-09T01:44:47;17.30;99.90
29849;DHT22;16728;50.832;5.590;2022-09-09T01:47:50;17.30;99.90
29849;DHT22;16728;50.832;5.590;2022-09-09T01:50:53;17.30;99.90
29849;DHT22;16728;50.832;5.590;2022-09-09T01:53:55;17.30;99.90
29849;DHT22;16728;50.832;5.590;2022-09-09T01:57:08;17.30;99.90
29849;DHT22;16728;50.832;5.590;2022-09-09T02:00:14;17.30;99.90
29849;DHT22;16728;50.832;5.590;2022-09-09T02:03:25;17.30;99.90
29849;DHT22;16728;50.832;5.590;2022-09-09T02:06:36;17.20;99.90
29849;DHT22;16728;50.832;5.590;2022-09-09T02:09:41;17.30;99.90
29849;DHT22;16728;50.832;5.590;2022-09-09T02:12:49;17.30;99.90
29849;DHT22;16728;50.832;5.590;2022-09-09T02:19:14;17.30;99.90
29849;DHT22;16728;50.832;5.590;2022-09-09T02:22:20;17.30;99.90
29849;DHT22;16728;50.832;5.590;2022-09-09T02:25:26;17.30;99.90
29849;DHT22;16728;50.832;5.590;2022-09-09T02:28:32;17.30;99.90
29849;DHT22;16728;50.832;5.590;2022-09-09T02:31:34;17.30;99.90
29849;DHT22;16728;50.832;5.590;2022-09-09T02:34:39;17.30;99.90
29849;DHT22;16728;50.832;5.590;2022-09-09T02:37:42;17.30;99.90
29849;DHT22;16728;50.832;5.590;2022-09-09T02:40:47;17.20;99.90
29849;DHT22;16728;50.832;5.590;2022-09-09T02:43:50;17.20;99.90
29849;DHT22;16728;50.832;5.590;2022-09-09T02:47:24;17.20;99.90
29849;DHT22;16728;50.832;5.590;2022-09-09T02:50:35;17.20;99.90
29849;DHT22;16728;50.832;5.590;2022-09-09T02:53:55;17.20;99.90
29849;DHT22;16728;50.832;5.590;2022-09-09T02:57:11;17.20;99.90
29849;DHT22;16728;50.832;5.590;2022-09-09T03:00:14;17.20;99.90
29849;DHT22;16728;50.832;5.590;2022-09-09T03:03:17;17.20;99.90
29849;DHT22;16728;50.832;5.590;2022-09-09T03:06:19;17.10;99.90
29849;DHT22;16728;50.832;5.590;2022-09-09T03:09:25;17.10;99.90
29849;DHT22;16728;50.832;5.590;2022-09-09T03:12:27;17.20;99.90
29849;DHT22;16728;50.832;5.590;2022-09-09T03:15:29;17.10;99.90
29849;DHT22;16728;50.832;5.590;2022-09-09T03:18:32;17.10;99.90
29849;DHT22;16728;50.832;5.590;2022-09-09T03:21:35;17.10;99.90
29849;DHT22;16728;50.832;5.590;2022-09-09T03:24:37;17.20;99.90
29849;DHT22;16728;50.832;5.590;2022-09-09T03:27:39;17.20;99.90
29849;DHT22;16728;50.832;5.590;2022-09-09T03:30:41;17.20;99.90
29849;DHT22;16728;50.832;5.590;2022-09-09T03:33:43;17.10;99.90
29849;DHT22;16728;50.832;5.590;2022-09-09T03:36:45;17.10;99.90
29849;DHT22;16728;50.832;5.590;2022-09-09T03:39:47;17.10;99.90
29849;DHT22;16728;50.832;5.590;2022-09-09T03:42:49;17.10;99.90
29849;DHT22;16728;50.832;5.590;2022-09-09T03:45:52;17.20;99.90
29849;DHT22;16728;50.832;5.590;2022-09-09T03:48:54;17.20;99.90
29849;DHT22;16728;50.832;5.590;2022-09-09T03:51:56;17.20;99.90
29849;DHT22;16728;50.832;5.590;2022-09-09T03:54:59;17.20;99.90
29849;DHT22;16728;50.832;5.590;2022-09-09T03:58:01;17.20;99.90
29849;DHT22;16728;50.832;5.590;2022-09-09T04:01:06;17.20;99.90
29849;DHT22;16728;50.832;5.590;2022-09-09T04:04:10;17.20;99.90
29849;DHT22;16728;50.832;5.590;2022-09-09T04:07:13;17.20;99.90
29849;DHT22;16728;50.832;5.590;2022-09-09T04:10:15;17.20;99.90
29849;DHT22;16728;50.832;5.590;2022-09-09T04:13:18;17.30;99.90
29849;DHT22;16728;50.832;5.590;2022-09-09T04:16:21;17.20;99.90
29849;DHT22;16728;50.832;5.590;2022-09-09T04:19:23;17.20;99.90
29849;DHT22;16728;50.832;5.590;2022-09-09T04:22:24;17.20;99.90
29849;DHT22;16728;50.832;5.590;2022-09-09T04:25:26;17.20;99.90
29849;DHT22;16728;50.832;5.590;2022-09-09T04:28:31;17.20;99.90
29849;DHT22;16728;50.832;5.590;2022-09-09T04:31:34;17.20;99.90
29849;DHT22;16728;50.832;5.590;2022-09-09T04:34:36;17.10;99.90
29849;DHT22;16728;50.832;5.590;2022-09-09T04:37:38;17.10;99.90
29849;DHT22;16728;50.832;5.590;2022-09-09T04:40:51;17.10;99.90
29849;DHT22;16728;50.832;5.590;2022-09-09T04:43:53;17.10;99.90
29849;DHT22;16728;50.832;5.590;2022-09-09T04:46:55;17.10;99.90
29849;DHT22;16728;50.832;5.590;2022-09-09T04:49:57;17.20;99.90
29849;DHT22;16728;50.832;5.590;2022-09-09T04:53:05;17.20;99.90
29849;DHT22;16728;50.832;5.590;2022-09-09T04:56:12;17.10;99.90
29849;DHT22;16728;50.832;5.590;2022-09-09T04:59:15;17.10;99.90
29849;DHT22;16728;50.832;5.590;2022-09-09T05:02:17;17.00;99.90
29849;DHT22;16728;50.832;5.590;2022-09-09T05:05:18;17.10;99.90
29849;DHT22;16728;50.832;5.590;2022-09-09T05:08:21;17.10;99.90
29849;DHT22;16728;50.832;5.590;2022-09-09T05:11:26;17.10;99.90
29849;DHT22;16728;50.832;5.590;2022-09-09T05:14:28;17.10;99.90
29849;DHT22;16728;50.832;5.590;2022-09-09T05:17:31;17.10;99.90
29849;DHT22;16728;50.832;5.590;2022-09-09T05:20:34;17.10;99.90
29849;DHT22;16728;50.832;5.590;2022-09-09T05:23:36;17.00;99.90
29849;DHT22;16728;50.832;5.590;2022-09-09T05:26:38;17.00;99.90
29849;DHT22;16728;50.832;5.590;2022-09-09T05:29:40;17.10;99.90
29849;DHT22;16728;50.832;5.590;2022-09-09T05:32:44;17.10;99.90
29849;DHT22;16728;50.832;5.590;2022-09-09T05:35:46;17.10;99.90
29849;DHT22;16728;50.832;5.590;2022-09-09T05:38:48;17.10;99.90
29849;DHT22;16728;50.832;5.590;2022-09-09T05:41:51;17.20;99.90
29849;DHT22;16728;50.832;5.590;2022-09-09T05:44:53;17.10;99.90
29849;DHT22;16728;50.832;5.590;2022-09-09T05:47:56;17.10;99.90
29849;DHT22;16728;50.832;5.590;2022-09-09T05:50:59;17.20;99.90
29849;DHT22;16728;50.832;5.590;2022-09-09T05:54:02;17.20;99.90
29849;DHT22;16728;50.832;5.590;2022-09-09T05:57:04;17.20;99.90
29849;DHT22;16728;50.832;5.590;2022-09-09T06:00:12;17.20;99.90
29849;DHT22;16728;50.832;5.590;2022-09-09T06:03:16;17.10;99.90
29849;DHT22;16728;50.832;5.590;2022-09-09T06:06:22;17.20;99.90
29849;DHT22;16728;50.832;5.590;2022-09-09T06:09:24;17.20;99.90
29849;DHT22;16728;50.832;5.590;2022-09-09T06:12:26;17.20;99.90
29849;DHT22;16728;50.832;5.590;2022-09-09T06:15:28;17.20;99.90
29849;DHT22;16728;50.832;5.590;2022-09-09T06:18:32;17.20;99.90
29849;DHT22;16728;50.832;5.590;2022-09-09T06:21:36;17.20;99.90
29849;DHT22;16728;50.832;5.590;2022-09-09T06:24:41;17.20;99.90
29849;DHT22;16728;50.832;5.590;2022-09-09T06:27:48;17.30;99.90
29849;DHT22;16728;50.832;5.590;2022-09-09T06:31:00;17.30;99.90
29849;DHT22;16728;50.832;5.590;2022-09-09T06:34:05;17.30;99.90
29849;DHT22;16728;50.832;5.590;2022-09-09T06:37:07;17.20;99.90
29849;DHT22;16728;50.832;5.590;2022-09-09T06:40:12;17.20;99.90
29849;DHT22;16728;50.832;5.590;2022-09-09T06:43:17;17.30;99.90
29849;DHT22;16728;50.832;5.590;2022-09-09T06:46:24;17.30;99.90
29849;DHT22;16728;50.832;5.590;2022-09-09T06:49:33;17.30;99.90
29849;DHT22;16728;50.832;5.590;2022-09-09T06:52:36;17.40;99.90
29849;DHT22;16728;50.832;5.590;2022-09-09T06:55:38;17.50;99.90
29849;DHT22;16728;50.832;5.590;2022-09-09T06:58:42;17.40;99.90
29849;DHT22;16728;50.832;5.590;2022-09-09T07:01:45;17.50;99.90
29849;DHT22;16728;50.832;5.590;2022-09-09T07:04:52;17.50;99.90
29849;DHT22;16728;50.832;5.590;2022-09-09T07:07:54;17.60;99.90
29849;DHT22;16728;50.832;5.590;2022-09-09T07:11:02;17.60;99.90
29849;DHT22;16728;50.832;5.590;2022-09-09T07:14:13;17.60;99.90
29849;DHT22;16728;50.832;5.590;2022-09-09T07:17:15;17.70;99.90
29849;DHT22;16728;50.832;5.590;2022-09-09T07:20:17;17.70;99.90
29849;DHT22;16728;50.832;5.590;2022-09-09T07:23:28;17.80;99.90
29849;DHT22;16728;50.832;5.590;2022-09-09T07:26:37;17.90;99.90
29849;DHT22;16728;50.832;5.590;2022-09-09T07:29:39;18.00;99.90
29849;DHT22;16728;50.832;5.590;2022-09-09T07:32:41;18.10;99.90
29849;DHT22;16728;50.832;5.590;2022-09-09T07:35:43;18.10;99.90
29849;DHT22;16728;50.832;5.590;2022-09-09T07:38:53;18.10;99.90
29849;DHT22;16728;50.832;5.590;2022-09-09T07:41:56;18.10;99.90
29849;DHT22;16728;50.832;5.590;2022-09-09T07:44:57;18.00;99.90
29849;DHT22;16728;50.832;5.590;2022-09-09T07:48:00;18.00;99.90
29849;DHT22;16728;50.832;5.590;2022-09-09T07:51:05;18.10;99.90
29849;DHT22;16728;50.832;5.590;2022-09-09T07:54:18;18.00;99.90
29849;DHT22;16728;50.832;5.590;2022-09-09T07:57:25;18.00;99.90
29849;DHT22;16728;50.832;5.590;2022-09-09T08:00:27;18.00;99.90
29849;DHT22;16728;50.832;5.590;2022-09-09T08:03:30;18.10;99.90
29849;DHT22;16728;50.832;5.590;2022-09-09T08:06:40;18.00;99.90
29849;DHT22;16728;50.832;5.590;2022-09-09T08:09:42;18.10;99.90
29849;DHT22;16728;50.832;5.590;2022-09-09T08:12:45;18.20;99.90
29849;DHT22;16728;50.832;5.590;2022-09-09T08:19:12;18.20;99.90
29849;DHT22;16728;50.832;5.590;2022-09-09T08:22:16;18.30;99.90
29849;DHT22;16728;50.832;5.590;2022-09-09T08:25:18;18.40;99.90
29849;DHT22;16728;50.832;5.590;2022-09-09T08:28:20;18.40;99.90
29849;DHT22;16728;50.832;5.590;2022-09-09T08:31:25;18.50;99.90
29849;DHT22;16728;50.832;5.590;2022-09-09T08:34:29;18.50;99.90
29849;DHT22;16728;50.832;5.590;2022-09-09T08:37:32;18.50;99.90
29849;DHT22;16728;50.832;5.590;2022-09-09T08:40:37;18.50;99.90
29849;DHT22;16728;50.832;5.590;2022-09-09T08:43:46;18.50;99.90
29849;DHT22;16728;50.832;5.590;2022-09-09T08:50:29;18.50;99.90
29849;DHT22;16728;50.832;5.590;2022-09-09T08:53:43;18.50;99.90
29849;DHT22;16728;50.832;5.590;2022-09-09T08:56:48;18.50;99.90
29849;DHT22;16728;50.832;5.590;2022-09-09T08:59:51;18.60;99.90
29849;DHT22;16728;50.832;5.590;2022-09-09T09:06:19;18.50;99.90
29849;DHT22;16728;50.832;5.590;2022-09-09T09:12:32;18.50;99.90
29849;DHT22;16728;50.832;5.590;2022-09-09T09:15:37;18.50;99.90
29849;DHT22;16728;50.832;5.590;2022-09-09T09:18:40;18.50;99.90
29849;DHT22;16728;50.832;5.590;2022-09-09T09:21:54;18.50;99.90
29849;DHT22;16728;50.832;5.590;2022-09-09T09:28:24;18.50;99.90
29849;DHT22;16728;50.832;5.590;2022-09-09T09:31:25;18.40;99.90
29849;DHT22;16728;50.832;5.590;2022-09-09T09:34:28;18.40;99.90
29849;DHT22;16728;50.832;5.590;2022-09-09T09:37:32;18.30;99.90
29849;DHT22;16728;50.832;5.590;2022-09-09T09:40:37;18.30;99.90
29849;DHT22;16728;50.832;5.590;2022-09-09T09:43:54;18.30;99.90
29849;DHT22;16728;50.832;5.590;2022-09-09T09:47:27;18.40;99.90
29849;DHT22;16728;50.832;5.590;2022-09-09T09:50:33;18.50;99.90
29849;DHT22;16728;50.832;5.590;2022-09-09T09:53:37;18.50;99.90
29849;DHT22;16728;50.832;5.590;2022-09-09T09:56:41;18.50;99.90
29849;DHT22;16728;50.832;5.590;2022-09-09T09:59:44;18.50;99.90
29849;DHT22;16728;50.832;5.590;2022-09-09T10:02:48;18.60;99.90
29849;DHT22;16728;50.832;5.590;2022-09-09T10:05:50;18.60;99.90
29849;DHT22;16728;50.832;5.590;2022-09-09T10:08:52;18.70;99.90
29849;DHT22;16728;50.832;5.590;2022-09-09T10:12:16;18.70;99.90
29849;DHT22;16728;50.832;5.590;2022-09-09T10:15:44;18.70;99.90
29849;DHT22;16728;50.832;5.590;2022-09-09T10:25:27;19.00;99.90
29849;DHT22;16728;50.832;5.590;2022-09-09T10:42:43;18.80;99.90
29849;DHT22;16728;50.832;5.590;2022-09-09T10:55:47;18.40;99.90
29849;DHT22;16728;50.832;5.590;2022-09-09T10:59:00;18.40;99.90
29849;DHT22;16728;50.832;5.590;2022-09-09T11:05:29;18.30;99.90
29849;DHT22;16728;50.832;5.590;2022-09-09T11:08:35;18.40;99.90
29849;DHT22;16728;50.832;5.590;2022-09-09T11:11:53;18.30;99.90
29849;DHT22;16728;50.832;5.590;2022-09-09T11:15:06;18.40;99.90
29849;DHT22;16728;50.832;5.590;2022-09-09T11:18:15;18.40;99.90
29849;DHT22;16728;50.832;5.590;2022-09-09T11:21:23;18.40;99.90
29849;DHT22;16728;50.832;5.590;2022-09-09T11:24:40;18.40;99.90
29849;DHT22;16728;50.832;5.590;2022-09-09T11:41:02;18.40;99.90
29849;DHT22;16728;50.832;5.590;2022-09-09T11:44:13;18.40;99.90
29849;DHT22;16728;50.832;5.590;2022-09-09T11:47:32;18.50;99.90
29849;DHT22;16728;50.832;5.590;2022-09-09T11:50:36;18.60;99.90
29849;DHT22;16728;50.832;5.590;2022-09-09T11:53:59;18.70;99.90
29849;DHT22;16728;50.832;5.590;2022-09-09T11:57:02;18.70;99.90
29849;DHT22;16728;50.832;5.590;2022-09-09T12:00:06;18.80;99.90
29849;DHT22;16728;50.832;5.590;2022-09-09T12:03:47;18.90;99.90
29849;DHT22;16728;50.832;5.590;2022-09-09T12:10:39;18.90;99.90
29849;DHT22;16728;50.832;5.590;2022-09-09T12:13:53;18.90;99.90
29849;DHT22;16728;50.832;5.590;2022-09-09T12:16:55;18.80;99.90
29849;DHT22;16728;50.832;5.590;2022-09-09T12:20:23;18.90;99.90
29849;DHT22;16728;50.832;5.590;2022-09-09T12:23:33;18.90;99.90
29849;DHT22;16728;50.832;5.590;2022-09-09T12:26:43;18.90;99.90
29849;DHT22;16728;50.832;5.590;2022-09-09T12:30:07;19.00;99.90
29849;DHT22;16728;50.832;5.590;2022-09-09T12:33:15;19.10;99.90
29849;DHT22;16728;50.832;5.590;2022-09-09T12:36:44;19.10;99.90
29849;DHT22;16728;50.832;5.590;2022-09-09T12:39:59;19.10;99.90
29849;DHT22;16728;50.832;5.590;2022-09-09T12:43:18;19.20;99.90
29849;DHT22;16728;50.832;5.590;2022-09-09T12:46:36;19.20;99.90
29849;DHT22;16728;50.832;5.590;2022-09-09T12:49:44;19.20;99.90
29849;DHT22;16728;50.832;5.590;2022-09-09T12:52:49;19.20;99.90
29849;DHT22;16728;50.832;5.590;2022-09-09T12:55:58;19.20;99.90
29849;DHT22;16728;50.832;5.590;2022-09-09T12:59:00;19.30;99.90
29849;DHT22;16728;50.832;5.590;2022-09-09T13:02:11;19.30;99.90
29849;DHT22;16728;50.832;5.590;2022-09-09T13:05:16;19.20;99.90
29849;DHT22;16728;50.832;5.590;2022-09-09T13:08:19;19.20;99.90
29849;DHT22;16728;50.832;5.590;2022-09-09T13:11:27;19.20;99.90
29849;DHT22;16728;50.832;5.590;2022-09-09T13:14:33;19.20;99.90
29849;DHT22;16728;50.832;5.590;2022-09-09T13:17:36;19.30;99.90
29849;DHT22;16728;50.832;5.590;2022-09-09T13:20:47;19.20;99.90
29849;DHT22;16728;50.832;5.590;2022-09-09T13:23:50;19.30;99.90
29849;DHT22;16728;50.832;5.590;2022-09-09T13:27:05;19.30;99.90
29849;DHT22;16728;50.832;5.590;2022-09-09T13:30:25;19.40;99.90
29849;DHT22;16728;50.832;5.590;2022-09-09T13:33:37;19.40;99.90
29849;DHT22;16728;50.832;5.590;2022-09-09T13:36:48;19.40;99.90
29849;DHT22;16728;50.832;5.590;2022-09-09T13:39:52;19.50;99.90
29849;DHT22;16728;50.832;5.590;2022-09-09T13:42:56;19.60;99.90
29849;DHT22;16728;50.832;5.590;2022-09-09T13:49:29;19.70;99.90
29849;DHT22;16728;50.832;5.590;2022-09-09T13:52:32;19.70;99.90
29849;DHT22;16728;50.832;5.590;2022-09-09T13:55:36;19.80;99.90
29849;DHT22;16728;50.832;5.590;2022-09-09T13:58:38;19.90;99.90
29849;DHT22;16728;50.832;5.590;2022-09-09T14:01:51;20.00;99.90
29849;DHT22;16728;50.832;5.590;2022-09-09T14:05:00;20.00;99.90
29849;DHT22;16728;50.832;5.590;2022-09-09T14:08:06;20.10;99.90
29849;DHT22;16728;50.832;5.590;2022-09-09T14:11:11;20.10;99.90
29849;DHT22;16728;50.832;5.590;2022-09-09T14:14:14;20.10;99.90
29849;DHT22;16728;50.832;5.590;2022-09-09T14:17:16;20.10;99.90
29849;DHT22;16728;50.832;5.590;2022-09-09T14:20:19;20.10;99.90
29849;DHT22;16728;50.832;5.590;2022-09-09T14:23:21;20.10;99.90
29849;DHT22;16728;50.832;5.590;2022-09-09T14:26:24;20.10;99.90
29849;DHT22;16728;50.832;5.590;2022-09-09T14:29:26;20.10;99.90
29849;DHT22;16728;50.832;5.590;2022-09-09T14:32:28;20.10;99.90
29849;DHT22;16728;50.832;5.590;2022-09-09T14:35:30;20.00;99.90
29849;DHT22;16728;50.832;5.590;2022-09-09T14:38:35;20.10;99.90
29849;DHT22;16728;50.832;5.590;2022-09-09T14:41:46;20.10;99.90
29849;DHT22;16728;50.832;5.590;2022-09-09T14:44:48;20.10;99.90
29849;DHT22;16728;50.832;5.590;2022-09-09T14:47:51;20.10;99.90
29849;DHT22;16728;50.832;5.590;2022-09-09T14:50:53;20.00;99.90
29849;DHT22;16728;50.832;5.590;2022-09-09T14:53:57;20.00;99.90
29849;DHT22;16728;50.832;5.590;2022-09-09T14:57:01;20.00;99.90
29849;DHT22;16728;50.832;5.590;2022-09-09T15:00:04;20.00;99.90
29849;DHT22;16728;50.832;5.590;2022-09-09T15:03:06;20.10;99.90
29849;DHT22;16728;50.832;5.590;2022-09-09T15:06:11;20.00;99.90
29849;DHT22;16728;50.832;5.590;2022-09-09T15:09:14;20.00;99.90
29849;DHT22;16728;50.832;5.590;2022-09-09T15:12:16;20.00;99.90
29849;DHT22;16728;50.832;5.590;2022-09-09T15:15:20;20.00;99.90
29849;DHT22;16728;50.832;5.590;2022-09-09T15:18:22;19.90;99.90
29849;DHT22;16728;50.832;5.590;2022-09-09T15:21:27;19.90;99.90
29849;DHT22;16728;50.832;5.590;2022-09-09T15:24:30;19.90;99.90
29849;DHT22;16728;50.832;5.590;2022-09-09T15:27:32;19.80;99.90
29849;DHT22;16728;50.832;5.590;2022-09-09T15:30:35;19.90;99.90
29849;DHT22;16728;50.832;5.590;2022-09-09T15:33:37;19.90;99.90
29849;DHT22;16728;50.832;5.590;2022-09-09T15:36:41;19.90;99.90
29849;DHT22;16728;50.832;5.590;2022-09-09T15:39:44;19.90;99.90
29849;DHT22;16728;50.832;5.590;2022-09-09T15:42:47;19.80;99.90
29849;DHT22;16728;50.832;5.590;2022-09-09T15:45:58;19.80;99.90
29849;DHT22;16728;50.832;5.590;2022-09-09T15:49:05;19.70;99.90
29849;DHT22;16728;50.832;5.590;2022-09-09T15:52:09;19.70;99.90
29849;DHT22;16728;50.832;5.590;2022-09-09T15:55:13;19.70;99.90
29849;DHT22;16728;50.832;5.590;2022-09-09T15:58:15;19.70;99.90
29849;DHT22;16728;50.832;5.590;2022-09-09T16:01:17;19.60;99.90
29849;DHT22;16728;50.832;5.590;2022-09-09T16:04:23;19.60;99.90
29849;DHT22;16728;50.832;5.590;2022-09-09T16:07:25;19.60;99.90
29849;DHT22;16728;50.832;5.590;2022-09-09T16:10:35;19.70;99.90
29849;DHT22;16728;50.832;5.590;2022-09-09T16:13:38;19.60;99.90
29849;DHT22;16728;50.832;5.590;2022-09-09T16:16:41;19.60;99.90
29849;DHT22;16728;50.832;5.590;2022-09-09T16:19:43;19.60;99.90
29849;DHT22;16728;50.832;5.590;2022-09-09T16:22:46;19.60;99.90
29849;DHT22;16728;50.832;5.590;2022-09-09T16:25:54;19.50;99.90
29849;DHT22;16728;50.832;5.590;2022-09-09T16:28:57;19.40;99.90
29849;DHT22;16728;50.832;5.590;2022-09-09T16:32:00;19.40;99.90
29849;DHT22;16728;50.832;5.590;2022-09-09T16:35:05;19.30;99.90
29849;DHT22;16728;50.832;5.590;2022-09-09T16:38:07;19.30;99.90
29849;DHT22;16728;50.832;5.590;2022-09-09T16:41:10;19.30;99.90
29849;DHT22;16728;50.832;5.590;2022-09-09T16:44:15;19.30;99.90
29849;DHT22;16728;50.832;5.590;2022-09-09T16:47:18;19.20;99.90
29849;DHT22;16728;50.832;5.590;2022-09-09T16:50:20;19.30;99.90
29849;DHT22;16728;50.832;5.590;2022-09-09T16:53:22;19.20;99.90
29849;DHT22;16728;50.832;5.590;2022-09-09T16:56:26;19.20;99.90
29849;DHT22;16728;50.832;5.590;2022-09-09T16:59:28;19.10;99.90
29849;DHT22;16728;50.832;5.590;2022-09-09T17:02:31;19.20;99.90
29849;DHT22;16728;50.832;5.590;2022-09-09T17:05:39;19.10;99.90
29849;DHT22;16728;50.832;5.590;2022-09-09T17:11:59;19.20;99.90
29849;DHT22;16728;50.832;5.590;2022-09-09T17:15:02;19.10;99.90
29849;DHT22;16728;50.832;5.590;2022-09-09T17:18:39;19.20;99.90
29849;DHT22;16728;50.832;5.590;2022-09-09T17:21:41;19.10;99.90
29849;DHT22;16728;50.832;5.590;2022-09-09T17:25:03;19.20;99.90
29849;DHT22;16728;50.832;5.590;2022-09-09T17:28:05;19.10;99.90
29849;DHT22;16728;50.832;5.590;2022-09-09T17:31:10;19.00;99.90
29849;DHT22;16728;50.832;5.590;2022-09-09T17:34:13;18.90;99.90
29849;DHT22;16728;50.832;5.590;2022-09-09T17:37:15;18.90;99.90
29849;DHT22;16728;50.832;5.590;2022-09-09T17:40:17;18.90;99.90
29849;DHT22;16728;50.832;5.590;2022-09-09T17:43:19;18.90;99.90
29849;DHT22;16728;50.832;5.590;2022-09-09T17:49:24;18.80;99.90
29849;DHT22;16728;50.832;5.590;2022-09-09T17:52:26;18.80;99.90
29849;DHT22;16728;50.832;5.590;2022-09-09T17:55:28;18.80;99.90
29849;DHT22;16728;50.832;5.590;2022-09-09T17:58:30;18.70;99.90
29849;DHT22;16728;50.832;5.590;2022-09-09T18:01:34;18.70;99.90
29849;DHT22;16728;50.832;5.590;2022-09-09T18:04:37;18.60;99.90
29849;DHT22;16728;50.832;5.590;2022-09-09T18:07:39;18.60;99.90
29849;DHT22;16728;50.832;5.590;2022-09-09T18:10:41;18.50;99.90
29849;DHT22;16728;50.832;5.590;2022-09-09T18:13:52;18.50;99.90
29849;DHT22;16728;50.832;5.590;2022-09-09T18:16:54;18.50;99.90
29849;DHT22;16728;50.832;5.590;2022-09-09T18:19:57;18.50;99.90
29849;DHT22;16728;50.832;5.590;2022-09-09T18:23:00;18.50;99.90
29849;DHT22;16728;50.832;5.590;2022-09-09T18:26:15;18.50;99.90
29849;DHT22;16728;50.832;5.590;2022-09-09T18:29:21;18.40;99.90
29849;DHT22;16728;50.832;5.590;2022-09-09T18:32:25;18.50;99.90
29849;DHT22;16728;50.832;5.590;2022-09-09T18:35:27;18.30;99.90
29849;DHT22;16728;50.832;5.590;2022-09-09T18:38:32;18.30;99.90
29849;DHT22;16728;50.832;5.590;2022-09-09T18:41:38;18.30;99.90
29849;DHT22;16728;50.832;5.590;2022-09-09T18:44:40;18.30;99.90
29849;DHT22;16728;50.832;5.590;2022-09-09T18:47:46;18.20;99.90
29849;DHT22;16728;50.832;5.590;2022-09-09T18:50:49;18.20;99.90
29849;DHT22;16728;50.832;5.590;2022-09-09T18:53:54;18.20;99.90
29849;DHT22;16728;50.832;5.590;2022-09-09T18:56:56;18.20;99.90
29849;DHT22;16728;50.832;5.590;2022-09-09T19:00:01;18.20;99.90
29849;DHT22;16728;50.832;5.590;2022-09-09T19:03:03;18.10;99.90
29849;DHT22;16728;50.832;5.590;2022-09-09T19:06:12;18.10;99.90
29849;DHT22;16728;50.832;5.590;2022-09-09T19:09:16;18.10;99.90
29849;DHT22;16728;50.832;5.590;2022-09-09T19:12:18;18.10;99.90
29849;DHT22;16728;50.832;5.590;2022-09-09T19:15:20;18.10;99.90
29849;DHT22;16728;50.832;5.590;2022-09-09T19:18:22;18.10;99.90
29849;DHT22;16728;50.832;5.590;2022-09-09T19:21:27;18.10;99.90
29849;DHT22;16728;50.832;5.590;2022-09-09T19:24:32;18.10;99.90
29849;DHT22;16728;50.832;5.590;2022-09-09T19:27:34;18.10;99.90
29849;DHT22;16728;50.832;5.590;2022-09-09T19:30:36;18.10;99.90
29849;DHT22;16728;50.832;5.590;2022-09-09T19:33:38;18.10;99.90
29849;DHT22;16728;50.832;5.590;2022-09-09T19:36:41;18.00;99.90
29849;DHT22;16728;50.832;5.590;2022-09-09T19:39:50;18.10;99.90
29849;DHT22;16728;50.832;5.590;2022-09-09T19:42:52;18.10;99.90
29849;DHT22;16728;50.832;5.590;2022-09-09T19:45:58;18.10;99.90
29849;DHT22;16728;50.832;5.590;2022-09-09T19:49:04;18.00;99.90
29849;DHT22;16728;50.832;5.590;2022-09-09T19:52:06;18.10;99.90
29849;DHT22;16728;50.832;5.590;2022-09-09T19:55:09;18.00;99.90
29849;DHT22;16728;50.832;5.590;2022-09-09T19:58:11;18.00;99.90
29849;DHT22;16728;50.832;5.590;2022-09-09T20:01:20;18.00;99.90
29849;DHT22;16728;50.832;5.590;2022-09-09T20:04:23;18.00;99.90
29849;DHT22;16728;50.832;5.590;2022-09-09T20:07:25;18.10;99.90
29849;DHT22;16728;50.832;5.590;2022-09-09T20:10:33;18.00;99.90
29849;DHT22;16728;50.832;5.590;2022-09-09T20:13:36;18.00;99.90
29849;DHT22;16728;50.832;5.590;2022-09-09T20:16:40;18.00;99.90
29849;DHT22;16728;50.832;5.590;2022-09-09T20:19:42;18.00;99.90
29849;DHT22;16728;50.832;5.590;2022-09-09T20:22:44;18.00;99.90
29849;DHT22;16728;50.832;5.590;2022-09-09T20:25:46;17.90;99.90
29849;DHT22;16728;50.832;5.590;2022-09-09T20:28:55;17.90;99.90
29849;DHT22;16728;50.832;5.590;2022-09-09T20:31:57;17.90;99.90
29849;DHT22;16728;50.832;5.590;2022-09-09T20:34:59;17.80;99.90
29849;DHT22;16728;50.832;5.590;2022-09-09T20:38:01;17.80;99.90
29849;DHT22;16728;50.832;5.590;2022-09-09T20:41:04;17.70;99.90
29849;DHT22;16728;50.832;5.590;2022-09-09T20:44:08;17.70;99.90
29849;DHT22;16728;50.832;5.590;2022-09-09T20:47:12;17.60;99.90
29849;DHT22;16728;50.832;5.590;2022-09-09T20:50:14;17.50;99.90
29849;DHT22;16728;50.832;5.590;2022-09-09T20:53:16;17.50;99.90
29849;DHT22;16728;50.832;5.590;2022-09-09T20:56:18;17.50;99.90
29849;DHT22;16728;50.832;5.590;2022-09-09T20:59:25;17.40;99.90
29849;DHT22;16728;50.832;5.590;2022-09-09T21:02:27;17.40;99.90
29849;DHT22;16728;50.832;5.590;2022-09-09T21:05:29;17.40;99.90
29849;DHT22;16728;50.832;5.590;2022-09-09T21:08:32;17.40;99.90
29849;DHT22;16728;50.832;5.590;2022-09-09T21:11:34;17.30;99.90
29849;DHT22;16728;50.832;5.590;2022-09-09T21:14:36;17.20;99.90
29849;DHT22;16728;50.832;5.590;2022-09-09T21:17:38;17.30;99.90
29849;DHT22;16728;50.832;5.590;2022-09-09T21:20:41;17.20;99.90
29849;DHT22;16728;50.832;5.590;2022-09-09T21:23:46;17.10;99.90
29849;DHT22;16728;50.832;5.590;2022-09-09T21:26:48;17.10;99.90
29849;DHT22;16728;50.832;5.590;2022-09-09T21:29:50;17.00;99.90
29849;DHT22;16728;50.832;5.590;2022-09-09T21:32:53;16.90;99.90
29849;DHT22;16728;50.832;5.590;2022-09-09T21:36:00;16.90;99.90
29849;DHT22;16728;50.832;5.590;2022-09-09T21:39:03;16.90;99.90
29849;DHT22;16728;50.832;5.590;2022-09-09T21:42:05;16.80;99.90